createdAt,value
2023-10-26T00:00:20.098Z,1.40
2023-10-26T00:02:47.983Z,1.23
2023-10-26T00:05:17.125Z,1.20
2023-10-26T00:07:44.863Z,1.23
2023-10-26T00:10:12.456Z,1.30
2023-10-26T00:12:40.218Z,1.33
2023-10-26T00:15:08.450Z,1.08
2023-10-26T00:17:36.179Z,2.28
2023-10-26T00:20:04.203Z,0.82
2023-10-26T00:22:33.098Z,1.00
2023-10-26T00:25:00.919Z,1.00
2023-10-26T00:27:28.501Z,1.38
2023-10-26T00:29:56.073Z,0.90
2023-10-26T00:32:23.818Z,3.05
2023-10-26T00:34:51.711Z,1.52
2023-10-26T00:37:19.249Z,1.38
2023-10-26T00:39:48.165Z,3.95
2023-10-26T00:42:15.832Z,1.45
2023-10-26T00:44:49.264Z,5.65
2023-10-26T00:47:16.866Z,1.20
2023-10-26T00:49:44.697Z,1.48
2023-10-26T00:52:12.982Z,1.38
2023-10-26T00:54:42.451Z,1.83
2023-10-26T00:57:12.301Z,1.45
2023-10-26T00:59:40.365Z,1.30
2023-10-26T01:02:07.939Z,1.55
2023-10-26T01:04:35.593Z,1.33
2023-10-26T01:07:03.105Z,3.85
2023-10-26T01:09:30.834Z,3.40
2023-10-26T01:11:58.628Z,1.50
2023-10-26T01:14:28.753Z,1.10
2023-10-26T01:16:56.445Z,2.72
2023-10-26T01:19:37.783Z,3.60
2023-10-26T01:22:06.722Z,1.95
2023-10-26T01:24:34.345Z,1.30
2023-10-26T01:27:02.010Z,1.52
2023-10-26T01:29:29.681Z,1.30
2023-10-26T01:31:57.229Z,3.00
2023-10-26T01:34:24.918Z,1.80
2023-10-26T01:36:52.465Z,2.22
2023-10-26T01:39:23.868Z,1.40
2023-10-26T01:41:51.646Z,1.17
2023-10-26T01:44:19.288Z,4.93
2023-10-26T01:46:46.817Z,2.58
2023-10-26T01:49:14.416Z,2.72
2023-10-26T01:51:41.989Z,1.45
2023-10-26T01:54:10.370Z,2.40
2023-10-26T01:56:41.235Z,1.20
2023-10-26T01:59:08.831Z,1.17
2023-10-26T02:01:36.426Z,1.27
2023-10-26T02:04:04.007Z,3.42
2023-10-26T02:06:32.010Z,2.05
2023-10-26T02:08:59.877Z,2.13
2023-10-26T02:11:27.432Z,1.15
2023-10-26T02:13:56.352Z,1.98
2023-10-26T02:16:23.859Z,3.05
2023-10-26T02:18:51.699Z,2.65
2023-10-26T02:21:19.371Z,1.30
2023-10-26T02:23:47.064Z,3.30
2023-10-26T02:26:14.679Z,1.17
2023-10-26T02:28:42.284Z,1.50
2023-10-26T02:31:11.144Z,4.90
2023-10-26T02:33:38.703Z,2.33
2023-10-26T02:36:07.864Z,1.23
2023-10-26T02:38:35.704Z,1.05
2023-10-26T02:41:06.626Z,1.95
2023-10-26T02:43:34.618Z,1.95
2023-10-26T02:46:03.062Z,3.03
2023-10-26T02:48:32.326Z,2.63
2023-10-26T02:51:00.044Z,1.00
2023-10-26T02:53:27.609Z,1.25
2023-10-26T02:55:55.208Z,2.40
2023-10-26T02:58:22.844Z,1.67
2023-10-26T03:00:50.488Z,3.00
2023-10-26T03:03:18.089Z,2.30
2023-10-26T03:05:47.122Z,0.90
2023-10-26T03:08:14.716Z,3.08
2023-10-26T03:10:42.239Z,2.53
2023-10-26T03:13:09.998Z,2.10
2023-10-26T03:15:37.647Z,2.53
2023-10-26T03:18:05.422Z,1.30
2023-10-26T03:20:36.031Z,1.08
2023-10-26T03:23:04.994Z,2.85
2023-10-26T03:25:33.327Z,1.20
2023-10-26T03:28:01.100Z,1.40
2023-10-26T03:30:29.208Z,2.60
2023-10-26T03:32:57.087Z,1.40
2023-10-26T03:35:24.850Z,3.40
2023-10-26T03:37:52.465Z,3.13
2023-10-26T03:40:21.384Z,3.60
2023-10-26T03:42:48.920Z,2.55
2023-10-26T03:45:16.574Z,2.00
2023-10-26T03:47:44.398Z,2.47
2023-10-26T03:50:12.040Z,1.65
2023-10-26T03:52:39.649Z,1.85
2023-10-26T03:55:07.405Z,2.15
2023-10-26T03:57:36.349Z,1.10
2023-10-26T04:00:04.981Z,1.13
2023-10-26T04:02:32.818Z,1.33
2023-10-26T04:05:00.566Z,1.10
2023-10-26T04:07:28.552Z,1.30
2023-10-26T04:09:56.321Z,1.48
2023-10-26T04:12:26.383Z,3.28
2023-10-26T04:14:57.020Z,3.10
2023-10-26T04:17:24.786Z,2.58
2023-10-26T04:19:52.403Z,1.23
2023-10-26T04:22:20.057Z,1.42
2023-10-26T04:24:47.890Z,2.42
2023-10-26T04:27:15.568Z,1.30
2023-10-26T04:29:43.768Z,1.73
2023-10-26T04:32:12.759Z,1.52
2023-10-26T04:34:45.477Z,2.03
2023-10-26T04:37:13.526Z,2.92
2023-10-26T04:39:44.693Z,1.50
2023-10-26T04:42:13.870Z,2.08
2023-10-26T04:44:42.508Z,2.72
2023-10-26T04:47:12.134Z,3.25
2023-10-26T04:49:39.764Z,1.75
2023-10-26T04:52:07.882Z,1.30
2023-10-26T04:54:35.464Z,1.25
2023-10-26T04:57:03.029Z,1.33
2023-10-26T04:59:31.902Z,2.53
2023-10-26T05:01:59.515Z,5.40
2023-10-26T05:04:28.625Z,3.47
2023-10-26T05:06:56.279Z,3.83
2023-10-26T05:09:23.941Z,2.83
2023-10-26T05:11:51.729Z,2.40
2023-10-26T05:14:18.298Z,2.00
2023-10-26T05:16:46.249Z,1.83
2023-10-26T05:19:13.830Z,1.42
2023-10-26T05:21:43.187Z,1.77
2023-10-26T05:24:11.372Z,1.30
2023-10-26T05:26:39.226Z,5.00
2023-10-26T05:29:06.925Z,1.52
2023-10-26T05:31:35.735Z,4.22
2023-10-26T05:34:03.557Z,3.05
2023-10-26T05:36:32.351Z,2.53
2023-10-26T05:39:02.537Z,1.42
2023-10-26T05:41:30.729Z,1.63
2023-10-26T05:43:59.163Z,3.17
2023-10-26T05:46:26.895Z,17.17
2023-10-26T05:48:54.989Z,18.33
2023-10-26T05:51:22.697Z,18.48
2023-10-26T05:53:50.780Z,35.72
2023-10-26T05:56:20.773Z,31.42
2023-10-26T05:58:51.788Z,27.52
2023-10-26T06:01:19.997Z,27.60
2023-10-26T06:03:49.197Z,31.95
2023-10-26T06:06:17.939Z,22.25
2023-10-26T06:08:45.711Z,15.13
2023-10-26T06:11:14.231Z,12.68
2023-10-26T06:13:43.414Z,10.02
2023-10-26T06:16:14.170Z,4.63
2023-10-26T06:18:41.812Z,4.35
2023-10-26T06:21:10.523Z,5.07
2023-10-26T06:23:38.711Z,4.82
2023-10-26T06:26:07.642Z,3.75
2023-10-26T06:28:35.991Z,2.85
2023-10-26T06:31:12.751Z,3.10
2023-10-26T06:33:41.278Z,3.85
2023-10-26T06:36:10.197Z,4.22
2023-10-26T06:38:38.571Z,13.25
2023-10-26T06:41:07.066Z,23.45
2023-10-26T06:43:35.045Z,20.33
2023-10-26T06:46:03.438Z,5.35
2023-10-26T06:48:33.400Z,10.05
2023-10-26T06:51:02.643Z,5.10
2023-10-26T06:53:30.916Z,4.13
2023-10-26T06:55:59.748Z,5.30
2023-10-26T06:58:29.025Z,5.38
2023-10-26T07:00:56.882Z,3.33
2023-10-26T07:03:25.857Z,4.30
2023-10-26T07:05:56.685Z,4.07
2023-10-26T07:08:24.249Z,5.18
2023-10-26T07:10:52.409Z,4.03
2023-10-26T07:13:20.700Z,6.28
2023-10-26T07:15:49.114Z,7.22
2023-10-26T07:18:19.797Z,14.20
2023-10-26T07:20:50.804Z,12.35
2023-10-26T07:23:21.140Z,5.35
2023-10-26T07:25:51.132Z,4.78
2023-10-26T07:28:19.311Z,3.88
2023-10-26T07:30:52.065Z,4.75
2023-10-26T07:33:21.239Z,2.97
2023-10-26T07:35:53.207Z,4.63
2023-10-26T07:38:35.439Z,5.40
2023-10-26T07:41:07.071Z,6.93
2023-10-26T07:43:36.289Z,3.63
2023-10-26T07:46:04.564Z,5.45
2023-10-26T07:48:33.423Z,4.15
2023-10-26T07:51:02.280Z,5.07
2023-10-26T07:53:31.585Z,7.35
2023-10-26T07:55:59.846Z,9.98
2023-10-26T07:58:27.835Z,6.85
2023-10-26T08:00:55.772Z,8.98
2023-10-26T08:03:25.554Z,10.93
2023-10-26T08:06:02.052Z,6.15
2023-10-26T08:08:32.072Z,8.05
2023-10-26T08:11:08.544Z,6.72
2023-10-26T08:13:36.792Z,5.38
2023-10-26T08:16:32.962Z,9.45
2023-10-26T08:18:53.641Z,7.32
2023-10-26T08:21:22.281Z,4.47
2023-10-26T08:23:52.569Z,3.35
2023-10-26T08:26:20.231Z,2.47
2023-10-26T08:28:49.253Z,6.40
2023-10-26T08:31:18.132Z,6.75
2023-10-26T08:33:45.819Z,5.57
2023-10-26T08:36:13.927Z,4.28
2023-10-26T08:38:42.976Z,2.15
2023-10-26T08:41:15.138Z,2.63
2023-10-26T08:43:44.834Z,3.53
2023-10-26T08:46:13.130Z,1.52
2023-10-26T08:48:42.531Z,2.63
2023-10-26T08:51:10.371Z,1.30
2023-10-26T08:53:41.259Z,4.43
2023-10-26T08:56:10.962Z,1.20
2023-10-26T08:58:41.384Z,1.95
2023-10-26T09:01:09.325Z,1.35
2023-10-26T09:03:38.126Z,1.58
2023-10-26T09:06:07.051Z,1.20
2023-10-26T09:08:35.510Z,3.95
2023-10-26T09:11:12.197Z,5.47
2023-10-26T09:13:42.654Z,1.70
2023-10-26T09:16:10.710Z,2.67
2023-10-26T09:18:40.208Z,1.77
2023-10-26T09:21:09.343Z,1.98
2023-10-26T09:23:38.490Z,2.75
2023-10-26T09:26:09.028Z,1.70
2023-10-26T09:28:52.384Z,2.20
2023-10-26T09:31:22.251Z,1.98
2023-10-26T09:33:52.430Z,2.10
2023-10-26T09:36:21.564Z,4.00
2023-10-26T09:38:50.399Z,3.70
2023-10-26T09:41:20.824Z,3.10
2023-10-26T09:43:49.627Z,2.08
2023-10-26T09:46:23.331Z,8.32
2023-10-26T09:48:53.227Z,2.78
2023-10-26T09:51:21.383Z,3.60
2023-10-26T09:53:50.360Z,1.80
2023-10-26T09:56:22.166Z,3.90
2023-10-26T09:58:52.490Z,3.00
2023-10-26T10:01:35.738Z,2.25
2023-10-26T10:04:05.773Z,7.15
2023-10-26T10:06:46.944Z,4.65
2023-10-26T10:09:15.408Z,8.20
2023-10-26T10:11:43.685Z,5.13
2023-10-26T10:14:11.851Z,1.90
2023-10-26T10:16:53.266Z,2.45
2023-10-26T10:19:23.200Z,2.30
2023-10-26T10:21:53.085Z,1.88
2023-10-26T10:24:39.837Z,3.00
2023-10-26T10:27:11.280Z,8.00
2023-10-26T10:29:39.025Z,5.93
2023-10-26T10:32:07.041Z,2.50
2023-10-26T10:34:46.869Z,2.53
2023-10-26T10:37:14.492Z,5.25
2023-10-26T10:39:59.961Z,4.25
2023-10-26T10:42:28.340Z,2.90
2023-10-26T10:44:56.453Z,3.75
2023-10-26T10:47:29.509Z,3.20
2023-10-26T10:50:12.044Z,1.73
2023-10-26T10:52:41.800Z,1.92
2023-10-26T10:55:13.445Z,2.30
2023-10-26T10:57:54.865Z,1.40
2023-10-26T11:00:22.729Z,2.15
2023-10-26T11:02:51.872Z,3.38
2023-10-26T11:05:19.795Z,1.90
2023-10-26T11:07:49.411Z,1.80
2023-10-26T11:10:17.102Z,1.90
2023-10-26T11:12:53.901Z,3.13
2023-10-26T11:15:21.585Z,3.80
2023-10-26T11:17:49.467Z,5.88
2023-10-26T11:20:37.958Z,2.00
2023-10-26T11:23:07.167Z,6.57
2023-10-26T11:25:34.891Z,7.40
2023-10-26T11:28:02.559Z,4.50
2023-10-26T11:30:31.507Z,5.95
2023-10-26T11:32:59.307Z,3.38
2023-10-26T11:35:27.780Z,3.35
2023-10-26T11:37:56.575Z,4.70
2023-10-26T11:40:32.100Z,3.33
2023-10-26T11:43:00.935Z,3.30
2023-10-26T11:45:29.530Z,3.45
2023-10-26T11:47:58.516Z,3.15
2023-10-26T11:50:26.661Z,3.30
2023-10-26T11:52:54.840Z,2.25
2023-10-26T11:55:23.793Z,2.70
2023-10-26T11:57:53.249Z,2.38
2023-10-26T12:00:21.130Z,1.80
2023-10-26T12:02:48.942Z,2.22
2023-10-26T12:05:17.843Z,2.53
2023-10-26T12:07:45.517Z,2.10
2023-10-26T12:10:15.342Z,2.42
2023-10-26T12:12:43.568Z,6.90
2023-10-26T12:15:13.050Z,2.17
2023-10-26T12:17:40.624Z,3.17
2023-10-26T12:20:09.306Z,1.90
2023-10-26T12:22:39.778Z,1.90
2023-10-26T12:25:09.198Z,1.60
2023-10-26T12:28:20.228Z,2.30
2023-10-26T12:30:26.970Z,1.30
2023-10-26T12:32:54.889Z,1.13
2023-10-26T12:35:22.653Z,1.13
2023-10-26T12:37:50.405Z,1.10
2023-10-26T12:40:19.512Z,1.02
2023-10-26T12:42:47.206Z,1.35
2023-10-26T12:45:15.485Z,1.25
2023-10-26T12:47:44.500Z,1.70
2023-10-26T12:50:13.781Z,2.47
2023-10-26T12:52:41.578Z,1.85
2023-10-26T12:55:09.462Z,1.60
2023-10-26T12:57:37.238Z,2.90
2023-10-26T13:00:05.307Z,1.25
2023-10-26T13:02:32.986Z,2.10
2023-10-26T13:05:02.032Z,2.58
2023-10-26T13:07:30.751Z,1.30
2023-10-26T13:09:58.492Z,1.48
2023-10-26T13:12:26.105Z,1.70
2023-10-26T13:15:02.438Z,1.35
2023-10-26T13:17:33.105Z,1.73
2023-10-26T13:20:02.290Z,6.28
2023-10-26T13:22:30.128Z,3.28
2023-10-26T13:24:57.911Z,1.73
2023-10-26T13:27:26.862Z,1.48
2023-10-26T13:29:54.595Z,2.35
2023-10-26T13:32:22.235Z,1.50
2023-10-26T13:34:52.214Z,5.72
2023-10-26T13:37:26.700Z,2.42
2023-10-26T13:39:54.512Z,2.17
2023-10-26T13:42:25.919Z,1.75
2023-10-26T13:44:53.573Z,2.00
2023-10-26T13:47:21.340Z,2.00
2023-10-26T13:49:49.087Z,1.88
2023-10-26T13:52:18.182Z,1.67
2023-10-26T13:54:47.356Z,2.38
2023-10-26T13:57:15.232Z,2.05
2023-10-26T13:59:42.919Z,3.13
2023-10-26T14:02:10.578Z,2.92
2023-10-26T14:04:40.139Z,2.35
2023-10-26T14:07:10.251Z,2.13
2023-10-26T14:09:38.159Z,3.53
2023-10-26T14:12:07.787Z,3.58
2023-10-26T14:14:38.384Z,3.05
2023-10-26T14:17:06.109Z,3.92
2023-10-26T14:19:33.827Z,3.03
2023-10-26T14:22:01.693Z,3.97
2023-10-26T14:24:29.398Z,4.18
2023-10-26T14:26:57.124Z,4.70
2023-10-26T14:29:26.211Z,3.08
2023-10-26T14:31:54.923Z,4.05
2023-10-26T14:34:22.767Z,5.90
2023-10-26T14:36:50.377Z,4.85
2023-10-26T14:39:18.012Z,5.90
2023-10-26T14:41:45.800Z,3.80
2023-10-26T14:44:14.470Z,5.50
2023-10-26T14:46:43.684Z,7.22
2023-10-26T14:49:11.390Z,4.97
2023-10-26T14:51:41.748Z,3.63
2023-10-26T14:54:09.471Z,6.72
2023-10-26T14:56:37.408Z,4.72
2023-10-26T14:59:05.257Z,6.53
2023-10-26T15:01:32.956Z,4.10
2023-10-26T15:04:02.086Z,3.33
2023-10-26T15:06:29.782Z,5.85
2023-10-26T15:08:57.412Z,5.03
2023-10-26T15:11:27.857Z,8.82
2023-10-26T15:14:19.465Z,18.50
2023-10-26T15:16:47.230Z,29.13
2023-10-26T15:19:16.255Z,18.20
2023-10-26T15:21:44.182Z,10.45
2023-10-26T15:24:13.776Z,11.77
2023-10-26T15:26:41.373Z,13.32
2023-10-26T15:29:09.364Z,5.80
2023-10-26T15:31:39.073Z,7.15
2023-10-26T15:34:07.404Z,4.45
2023-10-26T15:36:36.487Z,7.68
2023-10-26T15:39:09.159Z,4.80
2023-10-26T15:41:43.837Z,9.25
2023-10-26T15:44:11.964Z,17.10
2023-10-26T15:46:39.728Z,9.80
2023-10-26T15:49:33.427Z,11.50
2023-10-26T15:51:56.996Z,10.55
2023-10-26T15:54:24.968Z,11.73
2023-10-26T15:56:52.575Z,9.52
2023-10-26T15:59:20.213Z,12.02
2023-10-26T16:01:47.906Z,10.02
2023-10-26T16:04:15.566Z,9.50
2023-10-26T16:06:43.902Z,8.02
2023-10-26T16:09:13.005Z,7.28
2023-10-26T16:11:40.989Z,6.63
2023-10-26T16:14:08.677Z,6.57
2023-10-26T16:16:37.403Z,5.78
2023-10-26T16:19:05.687Z,7.57
2023-10-26T16:21:33.468Z,9.27
2023-10-26T16:24:01.043Z,5.70
2023-10-26T16:26:30.000Z,7.25
2023-10-26T16:28:57.605Z,5.30
2023-10-26T16:31:28.288Z,7.20
2023-10-26T16:33:56.291Z,10.43
2023-10-26T16:36:24.791Z,16.35
2023-10-26T16:38:52.546Z,14.63
2023-10-26T16:41:20.217Z,13.82
2023-10-26T16:43:50.283Z,4.38
2023-10-26T16:46:19.072Z,6.93
2023-10-26T16:48:47.131Z,9.57
2023-10-26T16:51:17.877Z,10.63
2023-10-26T16:53:47.446Z,7.85
2023-10-26T16:56:15.103Z,9.60
2023-10-26T16:58:42.739Z,9.43
2023-10-26T17:01:12.263Z,8.77
2023-10-26T17:03:40.488Z,6.82
2023-10-26T17:06:10.130Z,7.97
2023-10-26T17:08:38.010Z,9.10
2023-10-26T17:11:06.513Z,12.18
2023-10-26T17:13:35.371Z,14.40
2023-10-26T17:16:03.171Z,11.75
2023-10-26T17:18:32.353Z,11.63
2023-10-26T17:21:01.865Z,8.10
2023-10-26T17:23:29.541Z,7.25
2023-10-26T17:25:57.188Z,13.10
2023-10-26T17:28:24.827Z,10.00
2023-10-26T17:30:52.514Z,12.75
2023-10-26T17:33:20.230Z,11.07
2023-10-26T17:35:52.322Z,12.73
2023-10-26T17:38:20.070Z,10.85
2023-10-26T17:40:49.072Z,15.50
2023-10-26T17:43:17.887Z,8.30
2023-10-26T17:45:53.659Z,8.20
2023-10-26T17:48:21.347Z,12.63
2023-10-26T17:50:50.324Z,11.20
2023-10-26T17:53:20.218Z,13.88
2023-10-26T17:55:48.682Z,14.95
2023-10-26T17:58:16.269Z,8.38
2023-10-26T18:00:43.862Z,14.98
2023-10-26T18:03:11.794Z,13.95
2023-10-26T18:05:39.447Z,13.05
2023-10-26T18:08:08.533Z,9.05
2023-10-26T18:10:36.134Z,13.10
2023-10-26T18:13:05.911Z,15.07
2023-10-26T18:15:34.856Z,7.70
2023-10-26T18:18:02.563Z,10.07
2023-10-26T18:20:30.206Z,11.82
2023-10-26T18:22:58.072Z,11.88
2023-10-26T18:25:27.062Z,16.27
2023-10-26T18:27:54.847Z,12.27
2023-10-26T18:30:24.677Z,14.77
2023-10-26T18:32:53.249Z,11.48
2023-10-26T18:35:20.941Z,10.82
2023-10-26T18:37:48.507Z,11.25
2023-10-26T18:40:16.324Z,14.13
2023-10-26T18:42:50.307Z,11.00
2023-10-26T18:45:18.172Z,15.13
2023-10-26T18:47:46.907Z,9.88
2023-10-26T18:50:14.797Z,7.82
2023-10-26T18:52:44.893Z,9.13
2023-10-26T18:55:12.653Z,13.88
2023-10-26T18:57:40.359Z,8.35
2023-10-26T19:00:10.380Z,10.88
2023-10-26T19:02:38.067Z,8.50
2023-10-26T19:05:09.661Z,10.05
2023-10-26T19:07:37.363Z,14.05
2023-10-26T19:10:05.287Z,15.10
2023-10-26T19:12:32.961Z,10.77
2023-10-26T19:15:00.555Z,10.05
2023-10-26T19:17:29.691Z,16.02
2023-10-26T19:19:57.412Z,7.97
2023-10-26T19:22:25.086Z,13.70
2023-10-26T19:24:52.714Z,11.50
2023-10-26T19:27:20.384Z,15.48
2023-10-26T19:29:47.999Z,14.60
2023-10-26T19:32:20.792Z,18.45
2023-10-26T19:34:51.883Z,9.48
2023-10-26T19:37:19.583Z,10.63
2023-10-26T19:39:47.224Z,17.92
2023-10-26T19:42:15.443Z,15.40
2023-10-26T19:44:43.084Z,11.20
2023-10-26T19:47:11.079Z,15.25
2023-10-26T19:49:38.768Z,25.17
2023-10-26T19:52:10.674Z,16.02
2023-10-26T19:54:38.641Z,11.60
2023-10-26T19:57:06.486Z,21.98
2023-10-26T19:59:34.614Z,16.02
2023-10-26T20:02:02.912Z,20.23
2023-10-26T20:04:30.585Z,16.73
2023-10-26T20:06:59.163Z,12.20
2023-10-26T20:09:29.358Z,13.73
2023-10-26T20:11:57.090Z,17.50
2023-10-26T20:14:25.015Z,13.43
2023-10-26T20:16:53.580Z,10.05
2023-10-26T20:19:21.874Z,14.63
2023-10-26T20:21:49.636Z,12.95
2023-10-26T20:24:17.300Z,11.38
2023-10-26T20:26:51.237Z,15.30
2023-10-26T20:29:19.108Z,21.33
2023-10-26T20:31:47.036Z,13.80
2023-10-26T20:34:18.294Z,13.30
2023-10-26T20:36:46.469Z,13.60
2023-10-26T20:39:14.327Z,14.55
2023-10-26T20:41:44.922Z,9.57
2023-10-26T20:44:19.217Z,15.18
2023-10-26T20:46:47.247Z,10.52
2023-10-26T20:49:15.385Z,15.57
2023-10-26T20:51:43.066Z,15.68
2023-10-26T20:54:10.789Z,5.68
2023-10-26T20:56:38.873Z,9.45
2023-10-26T20:59:09.701Z,8.88
2023-10-26T21:01:39.443Z,8.25
2023-10-26T21:04:07.453Z,12.77
2023-10-26T21:06:35.125Z,12.32
2023-10-26T21:09:02.742Z,6.85
2023-10-26T21:11:30.308Z,8.48
2023-10-26T21:14:02.203Z,13.00
2023-10-26T21:16:29.830Z,11.68
2023-10-26T21:18:58.959Z,9.93
2023-10-26T21:21:28.138Z,10.20
2023-10-26T21:23:55.750Z,12.98
2023-10-26T21:26:23.352Z,14.23
2023-10-26T21:28:55.185Z,6.35
2023-10-26T21:31:24.904Z,11.13
2023-10-26T21:33:52.880Z,9.60
2023-10-26T21:36:22.641Z,8.52
2023-10-26T21:38:50.953Z,9.15
2023-10-26T21:41:18.521Z,10.27
2023-10-26T21:43:48.614Z,12.82
2023-10-26T21:46:16.252Z,6.38
2023-10-26T21:48:43.968Z,12.52
2023-10-26T21:51:11.568Z,6.78
2023-10-26T21:53:41.166Z,8.80
2023-10-26T21:56:08.736Z,9.48
2023-10-26T21:58:36.315Z,14.00
2023-10-26T22:01:04.189Z,11.85
2023-10-26T22:03:36.219Z,4.95
2023-10-26T22:06:03.866Z,4.63
2023-10-26T22:08:31.491Z,8.93
2023-10-26T22:11:00.428Z,14.45
2023-10-26T22:13:28.085Z,9.02
2023-10-26T22:15:55.742Z,7.22
2023-10-26T22:18:23.570Z,12.20
2023-10-26T22:20:51.326Z,7.97
2023-10-26T22:23:20.741Z,9.63
2023-10-26T22:25:48.355Z,10.88
2023-10-26T22:28:17.301Z,11.77
2023-10-26T22:30:48.634Z,8.20
2023-10-26T22:33:16.309Z,10.68
2023-10-26T22:35:46.427Z,9.48
2023-10-26T22:38:14.571Z,5.93
2023-10-26T22:40:42.350Z,14.02
2023-10-26T22:43:10.066Z,8.00
2023-10-26T22:45:39.242Z,6.57
2023-10-26T22:48:06.917Z,11.30
2023-10-26T22:50:34.591Z,11.05
2023-10-26T22:53:05.006Z,8.55
2023-10-26T22:55:34.964Z,6.93
2023-10-26T22:58:02.744Z,13.45
2023-10-26T23:00:30.321Z,9.88
2023-10-26T23:02:59.553Z,6.20
2023-10-26T23:05:27.429Z,10.80
2023-10-26T23:07:56.013Z,7.85
2023-10-26T23:10:23.647Z,10.48
2023-10-26T23:12:51.248Z,8.63
2023-10-26T23:15:18.910Z,8.50
2023-10-26T23:17:49.233Z,12.10
2023-10-26T23:20:18.520Z,13.55
2023-10-26T23:22:46.149Z,9.02
2023-10-26T23:25:13.831Z,16.17
2023-10-26T23:27:41.427Z,11.82
2023-10-26T23:30:09.654Z,5.40
2023-10-26T23:32:37.309Z,6.90
2023-10-26T23:35:05.095Z,10.57
2023-10-26T23:37:33.996Z,8.90
2023-10-26T23:40:05.227Z,9.48
2023-10-26T23:42:33.059Z,9.85
2023-10-26T23:45:00.789Z,12.43
2023-10-26T23:47:29.185Z,16.38
2023-10-26T23:49:56.890Z,10.75
2023-10-26T23:52:24.494Z,8.98
2023-10-26T23:54:54.455Z,6.80
2023-10-26T23:57:22.096Z,12.00
2023-10-26T23:59:49.735Z,13.43
